createdAt,value
2022-10-11T00:00:37.401Z,7.78
2022-10-11T00:03:39.700Z,8.93
2022-10-11T00:06:43.852Z,8.18
2022-10-11T00:09:46.378Z,8.13
2022-10-11T00:12:48.654Z,7.27
2022-10-11T00:15:51.489Z,6.68
2022-10-11T00:18:53.897Z,7.28
2022-10-11T00:21:56.201Z,6.68
2022-10-11T00:24:59.316Z,6.82
2022-10-11T00:28:01.667Z,7.13
2022-10-11T00:31:11.324Z,8.13
2022-10-11T00:34:15.690Z,8.95
2022-10-11T00:37:18.794Z,8.30
2022-10-11T00:40:21.241Z,9.98
2022-10-11T00:43:26.108Z,8.60
2022-10-11T00:46:30.666Z,9.13
2022-10-11T00:49:32.842Z,8.68
2022-10-11T00:52:38.525Z,8.63
2022-10-11T00:55:53.486Z,8.77
2022-10-11T00:58:56.474Z,9.13
2022-10-11T01:01:58.923Z,8.38
2022-10-11T01:05:27.558Z,9.00
2022-10-11T01:08:24.005Z,8.50
2022-10-11T01:11:27.597Z,9.60
2022-10-11T01:14:41.898Z,8.63
2022-10-11T01:18:16.118Z,8.63
2022-10-11T01:21:31.123Z,8.70
2022-10-11T01:24:36.506Z,8.80
2022-10-11T01:27:48.506Z,7.78
2022-10-11T01:30:51.513Z,8.27
2022-10-11T01:34:06.369Z,8.00
2022-10-11T01:37:17.807Z,7.53
2022-10-11T01:40:42.654Z,9.07
2022-10-11T01:43:45.918Z,8.73
2022-10-11T01:46:48.192Z,8.03
2022-10-11T01:49:58.543Z,7.85
2022-10-11T01:53:16.223Z,8.32
2022-10-11T01:56:37.099Z,7.97
2022-10-11T01:59:51.620Z,8.43
2022-10-11T02:03:06.480Z,8.30
2022-10-11T02:06:50.241Z,8.73
2022-10-11T02:10:00.481Z,8.25
2022-10-11T02:13:13.684Z,10.30
2022-10-11T02:16:19.897Z,11.30
2022-10-11T02:19:26.646Z,12.33
2022-10-11T02:22:33.155Z,14.05
2022-10-11T02:25:36.485Z,13.75
2022-10-11T02:28:40.113Z,13.07
2022-10-11T02:31:43.436Z,14.25
2022-10-11T02:34:53.560Z,12.63
2022-10-11T02:38:03.824Z,11.43
2022-10-11T02:41:12.094Z,11.90
2022-10-11T02:44:19.062Z,13.02
2022-10-11T02:47:21.345Z,10.57
2022-10-11T02:50:23.846Z,8.83
2022-10-11T02:53:27.080Z,7.82
2022-10-11T02:56:29.399Z,8.95
2022-10-11T02:59:31.633Z,7.25
2022-10-11T03:02:34.150Z,7.60
2022-10-11T03:05:40.762Z,7.83
2022-10-11T03:08:43.073Z,8.07
2022-10-11T03:11:45.338Z,7.03
2022-10-11T03:14:47.631Z,7.97
2022-10-11T03:17:49.955Z,6.82
2022-10-11T03:20:52.224Z,7.53
2022-10-11T03:23:54.508Z,7.50
2022-10-11T03:26:56.810Z,7.85
2022-10-11T03:29:59.301Z,7.75
2022-10-11T03:33:01.549Z,8.32
2022-10-11T03:36:04.319Z,8.53
2022-10-11T03:39:07.069Z,7.93
2022-10-11T03:42:09.327Z,7.93
2022-10-11T03:45:11.698Z,7.43
2022-10-11T03:48:13.981Z,6.97
2022-10-11T03:51:16.338Z,7.27
2022-10-11T03:54:18.576Z,7.00
2022-10-11T03:57:20.901Z,6.22
2022-10-11T04:00:23.331Z,7.45
2022-10-11T04:03:25.755Z,7.40
2022-10-11T04:06:28.026Z,6.90
2022-10-11T04:09:30.390Z,7.20
2022-10-11T04:12:33.078Z,7.88
2022-10-11T04:15:36.863Z,7.80
2022-10-11T04:18:39.186Z,7.10
2022-10-11T04:21:41.552Z,7.27
2022-10-11T04:24:43.862Z,6.80
2022-10-11T04:27:46.154Z,6.38
2022-10-11T04:30:48.437Z,6.22
2022-10-11T04:33:50.851Z,6.07
2022-10-11T04:36:53.240Z,5.27
2022-10-11T04:39:55.967Z,5.75
2022-10-11T04:42:58.750Z,11.40
2022-10-11T04:46:01.049Z,6.32
2022-10-11T04:49:03.607Z,5.82
2022-10-11T04:52:05.913Z,6.23
2022-10-11T04:55:08.629Z,7.03
2022-10-11T04:58:10.949Z,8.70
2022-10-11T05:01:13.208Z,6.40
2022-10-11T05:04:15.551Z,5.88
2022-10-11T05:07:17.817Z,5.67
2022-10-11T05:10:20.087Z,5.65
2022-10-11T05:13:22.584Z,5.53
2022-10-11T05:16:25.187Z,6.20
2022-10-11T05:19:27.523Z,6.90
2022-10-11T05:22:29.765Z,7.30
2022-10-11T05:25:31.996Z,7.00
2022-10-11T05:28:34.409Z,6.63
2022-10-11T05:31:36.742Z,5.57
2022-10-11T05:34:38.999Z,6.13
2022-10-11T05:37:41.388Z,6.27
2022-10-11T05:40:43.707Z,7.53
2022-10-11T05:43:46.089Z,7.05
2022-10-11T05:46:48.482Z,5.47
2022-10-11T05:49:50.774Z,6.15
2022-10-11T05:52:53.012Z,6.67
2022-10-11T05:55:55.473Z,7.13
2022-10-11T05:59:02.156Z,7.40
2022-10-11T06:02:04.774Z,8.30
2022-10-11T06:05:07.296Z,8.23
2022-10-11T06:08:11.219Z,8.37
2022-10-11T06:11:16.084Z,7.95
2022-10-11T06:14:18.544Z,6.47
2022-10-11T06:17:20.849Z,6.75
2022-10-11T06:20:23.085Z,5.60
2022-10-11T06:23:26.007Z,6.40
2022-10-11T06:26:29.507Z,6.38
2022-10-11T06:29:31.731Z,6.22
2022-10-11T06:32:34.036Z,5.53
2022-10-11T06:35:36.329Z,6.82
2022-10-11T06:38:43.800Z,6.90
2022-10-11T06:41:47.237Z,7.57
2022-10-11T06:44:49.511Z,6.82
2022-10-11T06:47:51.877Z,7.40
2022-10-11T06:50:59.934Z,7.38
2022-10-11T06:54:02.983Z,7.17
2022-10-11T06:57:05.342Z,7.03
2022-10-11T07:00:12.452Z,6.45
2022-10-11T07:03:15.089Z,6.03
2022-10-11T07:06:24.947Z,6.18
2022-10-11T07:09:27.218Z,5.53
2022-10-11T07:12:29.509Z,6.72
2022-10-11T07:15:31.768Z,5.93
2022-10-11T07:18:34.436Z,6.25
2022-10-11T07:21:36.746Z,5.50
2022-10-11T07:24:38.969Z,6.03
2022-10-11T07:27:41.213Z,6.45
2022-10-11T07:30:44.163Z,7.82
2022-10-11T07:33:46.684Z,6.45
2022-10-11T07:36:49.136Z,6.57
2022-10-11T07:39:51.385Z,6.20
2022-10-11T07:42:53.865Z,5.78
2022-10-11T07:45:57.166Z,6.25
2022-10-11T07:48:59.586Z,5.88
2022-10-11T07:52:01.830Z,6.43
2022-10-11T07:55:04.577Z,6.90
2022-10-11T07:58:11.584Z,6.57
2022-10-11T08:01:14.724Z,6.03
2022-10-11T08:04:17.113Z,6.15
2022-10-11T08:07:21.576Z,6.50
2022-10-11T08:10:26.315Z,7.40
2022-10-11T08:13:29.915Z,6.85
2022-10-11T08:16:32.208Z,6.75
2022-10-11T08:19:34.743Z,6.97
2022-10-11T08:22:37.050Z,6.22
2022-10-11T08:25:41.001Z,7.33
2022-10-11T08:28:43.412Z,7.40
2022-10-11T08:31:45.766Z,7.13
2022-10-11T08:34:48.053Z,6.03
2022-10-11T08:37:50.351Z,7.05
2022-10-11T08:40:55.369Z,7.37
2022-10-11T08:44:24.605Z,6.28
2022-10-11T08:47:35.750Z,7.18
2022-10-11T08:50:38.574Z,8.93
2022-10-11T08:53:54.107Z,9.15
2022-10-11T08:56:56.466Z,7.90
2022-10-11T09:00:01.260Z,7.70
2022-10-11T09:03:26.870Z,8.20
2022-10-11T09:06:32.111Z,7.70
2022-10-11T09:10:02.265Z,7.03
2022-10-11T09:13:13.615Z,7.57
2022-10-11T09:16:37.088Z,7.63
2022-10-11T09:20:17.768Z,7.47
2022-10-11T09:23:43.174Z,7.88
2022-10-11T09:26:59.574Z,8.35
2022-10-11T09:30:15.879Z,8.03
2022-10-11T09:33:29.310Z,8.00
2022-10-11T09:36:39.099Z,8.13
2022-10-11T09:39:53.667Z,8.52
2022-10-11T09:42:55.986Z,7.95
2022-10-11T09:45:58.356Z,8.00
2022-10-11T09:49:04.303Z,7.45
2022-10-11T09:52:14.490Z,8.40
2022-10-11T09:55:37.362Z,9.55
2022-10-11T09:58:40.405Z,7.75
2022-10-11T10:01:42.774Z,8.00
2022-10-11T10:04:53.856Z,7.90
2022-10-11T10:08:11.307Z,7.35
2022-10-11T10:11:14.450Z,8.07
2022-10-11T10:14:23.034Z,7.30
2022-10-11T10:17:25.372Z,7.17
2022-10-11T10:20:32.348Z,6.93
2022-10-11T10:23:36.441Z,6.50
2022-10-11T10:26:40.010Z,7.15
2022-10-11T10:29:43.275Z,6.70
2022-10-11T10:32:56.244Z,7.00
2022-10-11T10:36:04.101Z,6.80
2022-10-11T10:39:27.277Z,7.20
2022-10-11T10:42:29.702Z,7.25
2022-10-11T10:45:44.531Z,7.03
2022-10-11T10:49:28.291Z,7.27
2022-10-11T10:52:24.066Z,6.88
2022-10-11T10:55:45.333Z,6.95
2022-10-11T10:59:20.425Z,6.85
2022-10-11T11:02:51.921Z,6.82
2022-10-11T11:06:03.720Z,7.83
2022-10-11T11:09:18.690Z,6.70
2022-10-11T11:12:39.204Z,6.88
2022-10-11T11:15:52.033Z,6.88
2022-10-11T11:19:14.996Z,7.20
2022-10-11T11:22:40.029Z,7.00
2022-10-11T11:26:01.648Z,6.65
2022-10-11T11:29:07.345Z,6.53
2022-10-11T11:32:48.644Z,6.65
2022-10-11T11:35:53.952Z,6.93
2022-10-11T11:38:59.415Z,7.10
2022-10-11T11:42:07.945Z,6.95
2022-10-11T11:45:19.039Z,6.38
2022-10-11T11:48:24.901Z,7.15
2022-10-11T11:51:34.165Z,6.97
2022-10-11T11:54:50.653Z,7.33
2022-10-11T11:58:11.285Z,6.95
2022-10-11T12:01:37.952Z,6.60
2022-10-11T12:04:42.693Z,6.10
2022-10-11T12:07:54.402Z,6.53
2022-10-11T12:11:00.933Z,6.60
2022-10-11T12:14:34.589Z,7.07
2022-10-11T12:17:58.066Z,6.72
2022-10-11T12:21:07.484Z,7.05
2022-10-11T12:24:12.957Z,7.07
2022-10-11T12:27:53.049Z,6.70
2022-10-11T12:31:05.271Z,6.65
2022-10-11T12:34:16.562Z,7.65
2022-10-11T12:37:19.330Z,6.82
2022-10-11T12:40:37.538Z,7.47
2022-10-11T12:43:48.982Z,7.57
2022-10-11T12:46:51.539Z,6.60
2022-10-11T12:50:04.326Z,6.93
2022-10-11T12:53:30.123Z,6.25
2022-10-11T12:56:47.436Z,6.20
2022-10-11T12:59:49.942Z,6.30
2022-10-11T13:02:52.492Z,7.00
2022-10-11T13:06:01.465Z,7.05
2022-10-11T13:09:25.150Z,6.60
2022-10-11T13:12:31.310Z,6.78
2022-10-11T13:15:34.654Z,7.20
2022-10-11T13:18:48.514Z,7.78
2022-10-11T13:21:54.955Z,7.55
2022-10-11T13:24:58.011Z,7.00
2022-10-11T13:28:00.392Z,7.68
2022-10-11T13:31:03.831Z,7.10
2022-10-11T13:34:06.506Z,7.53
2022-10-11T13:37:18.732Z,7.22
2022-10-11T13:40:21.973Z,7.63
2022-10-11T13:43:26.387Z,7.35
2022-10-11T13:46:30.494Z,7.33
2022-10-11T13:54:45.287Z,8.38
2022-10-11T14:07:42.851Z,8.67
2022-10-11T14:11:18.039Z,8.35
2022-10-11T14:14:35.773Z,8.00
2022-10-11T14:17:44.620Z,7.47
2022-10-11T14:20:46.993Z,7.90
2022-10-11T14:24:01.775Z,7.87
2022-10-11T14:27:05.499Z,9.15
2022-10-11T14:30:27.248Z,8.18
2022-10-11T14:33:30.010Z,7.72
2022-10-11T14:36:32.288Z,7.65
2022-10-11T14:39:34.629Z,8.30
2022-10-11T14:42:36.926Z,8.95
2022-10-11T14:45:39.330Z,7.50
2022-10-11T14:48:55.063Z,8.77
2022-10-11T14:51:59.246Z,8.40
2022-10-11T14:55:01.951Z,8.60
2022-10-11T14:58:05.474Z,8.88
2022-10-11T15:01:12.363Z,8.55
2022-10-11T15:04:14.665Z,8.55
2022-10-11T15:07:17.001Z,8.75
2022-10-11T15:10:30.447Z,8.30
2022-10-11T15:13:32.754Z,8.43
2022-10-11T15:16:35.634Z,8.57
2022-10-11T15:19:37.970Z,8.90
2022-10-11T15:22:40.261Z,9.45
2022-10-11T15:25:42.931Z,8.73
2022-10-11T15:28:45.769Z,9.07
2022-10-11T15:31:49.374Z,9.45
2022-10-11T15:34:51.670Z,9.05
2022-10-11T15:37:56.669Z,9.60
2022-10-11T15:40:59.758Z,9.00
2022-10-11T15:44:02.061Z,9.55
2022-10-11T15:47:04.522Z,9.70
2022-10-11T15:50:33.801Z,9.70
2022-10-11T15:53:36.261Z,9.82
2022-10-11T15:56:38.593Z,9.67
2022-10-11T15:59:40.854Z,9.60
2022-10-11T16:02:43.124Z,9.25
2022-10-11T16:05:45.476Z,9.75
2022-10-11T16:08:48.081Z,10.70
2022-10-11T16:11:50.380Z,10.90
2022-10-11T16:14:52.784Z,11.13
2022-10-11T16:17:55.099Z,10.82
2022-10-11T16:20:57.365Z,10.02
2022-10-11T16:23:59.651Z,12.00
2022-10-11T16:27:01.915Z,12.87
2022-10-11T16:30:05.024Z,12.95
2022-10-11T16:33:07.315Z,11.57
2022-10-11T16:36:28.152Z,11.63
2022-10-11T16:39:30.460Z,11.93
2022-10-11T16:42:33.082Z,11.83
2022-10-11T16:45:36.013Z,12.68
2022-10-11T16:48:38.393Z,15.07
2022-10-11T16:51:40.885Z,16.20
2022-10-11T16:54:45.036Z,14.85
2022-10-11T16:57:47.581Z,14.00
2022-10-11T17:00:50.743Z,14.50
2022-10-11T17:03:53.271Z,13.38
2022-10-11T17:06:56.502Z,15.63
2022-10-11T17:10:00.991Z,15.70
2022-10-11T17:13:03.203Z,15.67
2022-10-11T17:16:06.287Z,16.05
2022-10-11T17:19:14.135Z,16.20
2022-10-11T17:22:19.347Z,15.48
2022-10-11T17:25:21.702Z,14.10
2022-10-11T17:28:24.225Z,13.97
2022-10-11T17:31:28.030Z,12.93
2022-10-11T17:34:30.837Z,14.32
2022-10-11T17:37:34.549Z,17.25
2022-10-11T17:40:36.888Z,20.63
2022-10-11T17:43:41.954Z,20.70
2022-10-11T17:46:44.430Z,23.85
2022-10-11T17:49:46.912Z,17.65
2022-10-11T17:52:49.439Z,21.23
2022-10-11T17:55:53.429Z,18.50
2022-10-11T17:58:56.920Z,16.97
2022-10-11T18:01:59.249Z,17.23
2022-10-11T18:05:01.581Z,16.05
2022-10-11T18:08:03.877Z,13.65
2022-10-11T18:11:10.681Z,15.95
2022-10-11T18:14:14.804Z,14.27
2022-10-11T18:17:17.745Z,15.00
2022-10-11T18:20:20.338Z,13.98
2022-10-11T18:23:22.759Z,14.52
2022-10-11T18:26:30.154Z,15.45
2022-10-11T18:29:32.848Z,17.10
2022-10-11T18:32:35.274Z,16.02
2022-10-11T18:35:38.154Z,18.40
2022-10-11T18:38:46.270Z,18.02
2022-10-11T18:41:49.032Z,18.30
2022-10-11T18:44:51.322Z,18.80
2022-10-11T18:47:53.652Z,19.65
2022-10-11T18:51:07.295Z,18.23
2022-10-11T18:54:12.956Z,18.77
2022-10-11T18:57:17.705Z,18.45
2022-10-11T19:00:39.748Z,19.00
2022-10-11T19:03:43.525Z,18.25
2022-10-11T19:06:50.801Z,18.48
2022-10-11T19:09:52.996Z,18.30
2022-10-11T19:12:55.281Z,17.25
2022-10-11T19:16:04.139Z,18.93
2022-10-11T19:19:07.469Z,17.92
2022-10-11T19:22:09.790Z,19.02
2022-10-11T19:25:12.157Z,19.02
2022-10-11T19:28:15.823Z,18.38
2022-10-11T19:31:18.195Z,17.90
2022-10-11T19:34:21.570Z,17.38
2022-10-11T19:37:23.982Z,18.60
2022-10-11T19:40:29.147Z,18.50
2022-10-11T19:43:33.975Z,17.48
2022-10-11T19:46:52.926Z,16.80
2022-10-11T19:49:55.584Z,17.33
2022-10-11T19:52:57.900Z,16.67
2022-10-11T19:56:02.385Z,17.00
2022-10-11T19:59:06.516Z,16.23
2022-10-11T20:02:10.609Z,17.90
2022-10-11T20:05:13.894Z,16.58
2022-10-11T20:08:16.285Z,17.67
2022-10-11T20:11:19.992Z,16.42
2022-10-11T20:14:22.523Z,16.77
2022-10-11T20:17:44.897Z,15.80
2022-10-11T20:20:55.027Z,18.00
2022-10-11T20:24:02.679Z,16.60
2022-10-11T20:27:05.695Z,17.40
2022-10-11T20:30:08.551Z,17.88
2022-10-11T20:33:10.814Z,17.83
2022-10-11T20:36:19.392Z,16.70
2022-10-11T20:39:22.049Z,17.05
2022-10-11T20:42:28.952Z,17.20
2022-10-11T20:45:32.129Z,18.95
2022-10-11T20:48:35.729Z,18.67
2022-10-11T20:51:39.414Z,18.35
2022-10-11T20:54:41.777Z,18.35
2022-10-11T20:57:44.101Z,17.88
2022-10-11T21:00:46.841Z,20.67
2022-10-11T21:03:49.230Z,18.90
2022-10-11T21:06:51.479Z,20.05
2022-10-11T21:09:53.852Z,18.92
2022-10-11T21:12:56.224Z,17.50
2022-10-11T21:16:11.278Z,17.77
2022-10-11T21:19:15.340Z,18.43
2022-10-11T21:22:17.605Z,18.00
2022-10-11T21:25:20.039Z,18.90
2022-10-11T21:28:22.438Z,18.38
2022-10-11T21:31:26.627Z,17.85
2022-10-11T21:34:31.937Z,17.53
2022-10-11T21:37:34.382Z,17.17
2022-10-11T21:40:40.606Z,17.38
2022-10-11T21:43:43.212Z,17.08
2022-10-11T21:47:06.044Z,17.98
2022-10-11T21:50:08.950Z,17.33
2022-10-11T21:53:11.388Z,16.77
2022-10-11T21:56:14.044Z,17.60
2022-10-11T21:59:16.326Z,16.67
2022-10-11T22:02:18.631Z,16.70
2022-10-11T22:05:21.010Z,15.67
2022-10-11T22:08:23.452Z,16.73
2022-10-11T22:11:25.718Z,15.25
2022-10-11T22:14:28.950Z,18.10
2022-10-11T22:17:31.189Z,15.48
2022-10-11T22:20:33.648Z,16.03
2022-10-11T22:23:36.310Z,15.93
2022-10-11T22:26:38.834Z,17.17
2022-10-11T22:29:41.307Z,16.60
2022-10-11T22:32:43.611Z,17.80
2022-10-11T22:35:45.846Z,16.73
2022-10-11T22:38:48.150Z,17.58
2022-10-11T22:41:50.512Z,17.08
2022-10-11T22:44:53.327Z,16.23
2022-10-11T22:47:55.581Z,16.80
2022-10-11T22:50:57.990Z,15.20
2022-10-11T22:54:00.321Z,15.93
2022-10-11T22:57:02.717Z,16.25
2022-10-11T23:00:05.819Z,16.88
2022-10-11T23:03:08.199Z,17.00
2022-10-11T23:06:10.540Z,17.53
2022-10-11T23:09:12.989Z,16.58
2022-10-11T23:12:15.598Z,16.35
2022-10-11T23:15:17.935Z,16.92
2022-10-11T23:18:20.352Z,17.10
2022-10-11T23:21:22.621Z,16.47
2022-10-11T23:24:25.078Z,16.08
2022-10-11T23:27:29.374Z,17.38
2022-10-11T23:30:31.801Z,16.25
2022-10-11T23:33:34.280Z,16.65
2022-10-11T23:36:36.561Z,16.07
2022-10-11T23:39:38.870Z,15.23
2022-10-11T23:42:41.127Z,15.95
2022-10-11T23:45:44.361Z,14.82
2022-10-11T23:48:46.693Z,15.20
2022-10-11T23:51:48.916Z,15.53
2022-10-11T23:54:51.286Z,14.93
2022-10-11T23:57:53.615Z,15.88
